sensor_id;sensor_type;location;lat;lon;timestamp;pressure;altitude;pressure_sealevel;temperature;humidity
74613;BME280;63119;51.788;8.824;2024-03-08T00:00:09;100495.81;;;3.54;71.46
74613;BME280;63119;51.788;8.824;2024-03-08T00:02:37;100500.13;;;3.55;71.77
74613;BME280;63119;51.788;8.824;2024-03-08T00:05:06;100490.00;;;3.45;72.23
74613;BME280;63119;51.788;8.824;2024-03-08T00:07:34;100490.38;;;3.33;71.89
74613;BME280;63119;51.788;8.824;2024-03-08T00:09:59;100488.38;;;3.41;71.57
74613;BME280;63119;51.788;8.824;2024-03-08T00:12:25;100487.66;;;3.36;72.15
74613;BME280;63119;51.788;8.824;2024-03-08T00:14:52;100493.66;;;3.39;72.62
74613;BME280;63119;51.788;8.824;2024-03-08T00:17:17;100487.44;;;3.43;72.48
74613;BME280;63119;51.788;8.824;2024-03-08T00:19:43;100487.66;;;3.36;72.44
74613;BME280;63119;51.788;8.824;2024-03-08T00:22:08;100493.31;;;3.22;72.85
74613;BME280;63119;51.788;8.824;2024-03-08T00:24:33;100485.84;;;3.38;71.95
74613;BME280;63119;51.788;8.824;2024-03-08T00:26:59;100483.38;;;3.33;73.03
74613;BME280;63119;51.788;8.824;2024-03-08T00:29:24;100482.00;;;3.21;72.73
74613;BME280;63119;51.788;8.824;2024-03-08T00:31:49;100485.28;;;3.28;72.61
74613;BME280;63119;51.788;8.824;2024-03-08T00:34:15;100480.56;;;3.11;72.78
74613;BME280;63119;51.788;8.824;2024-03-08T00:36:40;100478.38;;;3.25;73.02
74613;BME280;63119;51.788;8.824;2024-03-08T00:39:05;100469.00;;;3.18;73.10
74613;BME280;63119;51.788;8.824;2024-03-08T00:41:33;100467.28;;;3.17;72.98
74613;BME280;63119;51.788;8.824;2024-03-08T00:43:59;100472.59;;;3.16;72.93
74613;BME280;63119;51.788;8.824;2024-03-08T00:46:24;100462.59;;;3.28;72.15
74613;BME280;63119;51.788;8.824;2024-03-08T00:48:50;100467.09;;;3.23;73.09
74613;BME280;63119;51.788;8.824;2024-03-08T00:51:15;100463.59;;;3.24;73.12
74613;BME280;63119;51.788;8.824;2024-03-08T00:53:41;100467.09;;;3.23;72.77
74613;BME280;63119;51.788;8.824;2024-03-08T00:56:08;100456.56;;;3.26;73.24
74613;BME280;63119;51.788;8.824;2024-03-08T00:58:36;100460.16;;;3.22;72.59
74613;BME280;63119;51.788;8.824;2024-03-08T01:01:01;100450.91;;;3.12;73.65
74613;BME280;63119;51.788;8.824;2024-03-08T01:03:26;100452.59;;;3.13;73.36
74613;BME280;63119;51.788;8.824;2024-03-08T01:05:52;100452.41;;;3.19;72.37
74613;BME280;63119;51.788;8.824;2024-03-08T01:08:17;100450.25;;;3.34;72.73
74613;BME280;63119;51.788;8.824;2024-03-08T01:10:42;100442.00;;;3.18;72.57
74613;BME280;63119;51.788;8.824;2024-03-08T01:13:07;100436.91;;;3.13;72.22
74613;BME280;63119;51.788;8.824;2024-03-08T01:15:34;100439.59;;;3.12;72.55
74613;BME280;63119;51.788;8.824;2024-03-08T01:17:59;100438.53;;;3.17;72.43
74613;BME280;63119;51.788;8.824;2024-03-08T01:20:25;100434.19;;;3.16;72.92
74613;BME280;63119;51.788;8.824;2024-03-08T01:22:51;100425.75;;;3.08;72.59
74613;BME280;63119;51.788;8.824;2024-03-08T01:25:17;100423.31;;;3.02;72.42
74613;BME280;63119;51.788;8.824;2024-03-08T01:27:42;100416.09;;;3.10;73.10
74613;BME280;63119;51.788;8.824;2024-03-08T01:30:07;100420.59;;;3.05;72.00
74613;BME280;63119;51.788;8.824;2024-03-08T01:32:34;100410.94;;;3.07;72.46
74613;BME280;63119;51.788;8.824;2024-03-08T01:34:59;100406.66;;;3.06;72.62
74613;BME280;63119;51.788;8.824;2024-03-08T01:37:25;100404.81;;;3.08;71.93
74613;BME280;63119;51.788;8.824;2024-03-08T01:39:50;100400.50;;;3.07;72.83
74613;BME280;63119;51.788;8.824;2024-03-08T01:42:16;100393.38;;;3.12;72.25
74613;BME280;63119;51.788;8.824;2024-03-08T01:44:42;100390.03;;;3.07;72.51
74613;BME280;63119;51.788;8.824;2024-03-08T01:47:09;100390.38;;;2.97;72.81
74613;BME280;63119;51.788;8.824;2024-03-08T01:49:34;100388.53;;;3.00;72.34
74613;BME280;63119;51.788;8.824;2024-03-08T01:52:00;100386.44;;;3.11;72.30
74613;BME280;63119;51.788;8.824;2024-03-08T01:54:26;100381.19;;;3.11;72.36
74613;BME280;63119;51.788;8.824;2024-03-08T01:56:51;100382.47;;;2.98;72.15
74613;BME280;63119;51.788;8.824;2024-03-08T01:59:18;100377.50;;;2.91;72.68
74613;BME280;63119;51.788;8.824;2024-03-08T02:01:44;100382.91;;;2.85;72.99
74613;BME280;63119;51.788;8.824;2024-03-08T02:04:10;100380.13;;;2.91;72.47
74613;BME280;63119;51.788;8.824;2024-03-08T02:06:36;100378.47;;;2.87;72.34
74613;BME280;63119;51.788;8.824;2024-03-08T02:09:03;100376.63;;;2.90;72.09
74613;BME280;63119;51.788;8.824;2024-03-08T02:11:31;100373.03;;;2.94;72.49
74613;BME280;63119;51.788;8.824;2024-03-08T02:13:56;100368.97;;;2.84;72.53
74613;BME280;63119;51.788;8.824;2024-03-08T02:16:22;100366.72;;;2.73;73.06
74613;BME280;63119;51.788;8.824;2024-03-08T02:18:47;100367.25;;;2.83;72.91
74613;BME280;63119;51.788;8.824;2024-03-08T02:21:13;100360.72;;;2.70;73.63
74613;BME280;63119;51.788;8.824;2024-03-08T02:23:42;100360.53;;;2.76;73.27
74613;BME280;63119;51.788;8.824;2024-03-08T02:26:07;100355.22;;;2.79;73.34
74613;BME280;63119;51.788;8.824;2024-03-08T02:28:33;100357.72;;;2.82;72.74
74613;BME280;63119;51.788;8.824;2024-03-08T02:30:58;100360.34;;;2.82;72.91
74613;BME280;63119;51.788;8.824;2024-03-08T02:33:24;100359.34;;;2.86;72.62
74613;BME280;63119;51.788;8.824;2024-03-08T02:35:49;100355.78;;;2.89;72.88
74613;BME280;63119;51.788;8.824;2024-03-08T02:38:20;100352.03;;;2.68;73.55
74613;BME280;63119;51.788;8.824;2024-03-08T02:40:46;100344.22;;;2.68;73.34
74613;BME280;63119;51.788;8.824;2024-03-08T02:43:13;100339.72;;;2.73;73.80
74613;BME280;63119;51.788;8.824;2024-03-08T02:45:40;100347.66;;;2.70;73.52
74613;BME280;63119;51.788;8.824;2024-03-08T02:48:07;100339.06;;;2.65;73.66
74613;BME280;63119;51.788;8.824;2024-03-08T02:50:32;100337.75;;;2.52;73.90
74613;BME280;63119;51.788;8.824;2024-03-08T02:52:59;100337.75;;;2.52;73.67
74613;BME280;63119;51.788;8.824;2024-03-08T02:55:25;100335.75;;;2.60;73.94
74613;BME280;63119;51.788;8.824;2024-03-08T02:57:51;100328.91;;;2.56;73.37
74613;BME280;63119;51.788;8.824;2024-03-08T03:00:17;100330.59;;;2.58;73.45
74613;BME280;63119;51.788;8.824;2024-03-08T03:02:44;100330.59;;;2.58;73.17
74613;BME280;63119;51.788;8.824;2024-03-08T03:05:09;100318.53;;;2.53;73.42
74613;BME280;63119;51.788;8.824;2024-03-08T03:07:36;100321.81;;;2.61;73.51
74613;BME280;63119;51.788;8.824;2024-03-08T03:10:02;100320.47;;;2.46;73.97
74613;BME280;63119;51.788;8.824;2024-03-08T03:12:28;100315.34;;;2.43;73.73
74613;BME280;63119;51.788;8.824;2024-03-08T03:14:54;100316.19;;;2.45;74.68
74613;BME280;63119;51.788;8.824;2024-03-08T03:17:19;100316.94;;;2.49;73.77
74613;BME280;63119;51.788;8.824;2024-03-08T03:19:45;100315.06;;;2.52;73.95
74613;BME280;63119;51.788;8.824;2024-03-08T03:22:11;100308.38;;;2.44;74.13
74613;BME280;63119;51.788;8.824;2024-03-08T03:24:36;100312.75;;;2.43;74.08
74613;BME280;63119;51.788;8.824;2024-03-08T03:27:06;100313.78;;;2.38;74.65
74613;BME280;63119;51.788;8.824;2024-03-08T03:29:36;100304.97;;;2.42;74.37
74613;BME280;63119;51.788;8.824;2024-03-08T03:32:01;100310.50;;;2.31;74.51
74613;BME280;63119;51.788;8.824;2024-03-08T03:34:28;100311.13;;;2.39;74.46
74613;BME280;63119;51.788;8.824;2024-03-08T03:36:54;100301.75;;;2.34;74.76
74613;BME280;63119;51.788;8.824;2024-03-08T03:39:20;100309.38;;;2.40;74.53
74613;BME280;63119;51.788;8.824;2024-03-08T03:41:47;100297.31;;;2.36;74.25
74613;BME280;63119;51.788;8.824;2024-03-08T03:44:16;100296.41;;;2.37;74.41
74613;BME280;63119;51.788;8.824;2024-03-08T03:46:42;100294.13;;;2.26;74.54
74613;BME280;63119;51.788;8.824;2024-03-08T03:49:09;100278.41;;;2.28;74.53
74613;BME280;63119;51.788;8.824;2024-03-08T03:51:34;100289.56;;;2.33;74.56
74613;BME280;63119;51.788;8.824;2024-03-08T03:53:59;100281.94;;;2.25;74.53
74613;BME280;63119;51.788;8.824;2024-03-08T03:56:26;100288.72;;;2.32;74.03
74613;BME280;63119;51.788;8.824;2024-03-08T03:58:51;100291.09;;;2.40;73.61
74613;BME280;63119;51.788;8.824;2024-03-08T04:01:17;100287.94;;;2.58;73.60
74613;BME280;63119;51.788;8.824;2024-03-08T04:03:42;100277.72;;;2.50;73.51
74613;BME280;63119;51.788;8.824;2024-03-08T04:06:08;100278.56;;;2.51;73.83
74613;BME280;63119;51.788;8.824;2024-03-08T04:08:33;100275.88;;;2.54;73.30
74613;BME280;63119;51.788;8.824;2024-03-08T04:10:59;100267.44;;;2.46;73.71
74613;BME280;63119;51.788;8.824;2024-03-08T04:13:25;100274.72;;;2.35;74.03
74613;BME280;63119;51.788;8.824;2024-03-08T04:15:51;100268.59;;;2.36;73.90
74613;BME280;63119;51.788;8.824;2024-03-08T04:18:16;100270.50;;;2.31;73.85
74613;BME280;63119;51.788;8.824;2024-03-08T04:20:43;100256.50;;;2.33;74.55
74613;BME280;63119;51.788;8.824;2024-03-08T04:23:08;100258.63;;;2.19;75.23
74613;BME280;63119;51.788;8.824;2024-03-08T04:25:33;100264.09;;;2.11;75.34
74613;BME280;63119;51.788;8.824;2024-03-08T04:27:59;100264.88;;;2.15;76.09
74613;BME280;63119;51.788;8.824;2024-03-08T04:30:24;100254.00;;;2.29;75.12
74613;BME280;63119;51.788;8.824;2024-03-08T04:32:50;100255.13;;;2.20;74.67
74613;BME280;63119;51.788;8.824;2024-03-08T04:35:16;100251.47;;;2.26;74.38
74613;BME280;63119;51.788;8.824;2024-03-08T04:37:41;100252.06;;;2.35;74.87
74613;BME280;63119;51.788;8.824;2024-03-08T04:40:07;100242.88;;;2.22;74.88
74613;BME280;63119;51.788;8.824;2024-03-08T04:42:32;100247.47;;;2.14;74.16
74613;BME280;63119;51.788;8.824;2024-03-08T04:44:58;100241.22;;;2.19;74.73
74613;BME280;63119;51.788;8.824;2024-03-08T04:47:23;100239.72;;;2.12;75.00
74613;BME280;63119;51.788;8.824;2024-03-08T04:49:50;100238.84;;;2.12;74.64
74613;BME280;63119;51.788;8.824;2024-03-08T04:52:15;100224.06;;;2.12;74.69
74613;BME280;63119;51.788;8.824;2024-03-08T04:54:40;100226.56;;;2.15;74.52
74613;BME280;63119;51.788;8.824;2024-03-08T04:57:06;100220.19;;;1.96;75.44
74613;BME280;63119;51.788;8.824;2024-03-08T04:59:32;100223.47;;;2.03;74.79
74613;BME280;63119;51.788;8.824;2024-03-08T05:01:57;100212.34;;;1.96;74.66
74613;BME280;63119;51.788;8.824;2024-03-08T05:04:22;100219.09;;;2.03;75.29
74613;BME280;63119;51.788;8.824;2024-03-08T05:06:48;100221.75;;;2.02;74.92
74613;BME280;63119;51.788;8.824;2024-03-08T05:09:13;100221.31;;;1.88;75.52
74613;BME280;63119;51.788;8.824;2024-03-08T05:11:40;100218.00;;;1.81;75.95
74613;BME280;63119;51.788;8.824;2024-03-08T05:14:06;100221.47;;;1.82;76.22
74613;BME280;63119;51.788;8.824;2024-03-08T05:16:31;100216.88;;;1.90;75.47
74613;BME280;63119;51.788;8.824;2024-03-08T05:18:56;100214.06;;;1.97;74.99
74613;BME280;63119;51.788;8.824;2024-03-08T05:21:22;100202.00;;;1.93;75.48
74613;BME280;63119;51.788;8.824;2024-03-08T05:23:47;100208.28;;;1.86;75.28
74613;BME280;63119;51.788;8.824;2024-03-08T05:26:12;100208.25;;;1.88;75.54
74613;BME280;63119;51.788;8.824;2024-03-08T05:28:39;100209.75;;;1.96;75.22
74613;BME280;63119;51.788;8.824;2024-03-08T05:31:04;100215.16;;;1.89;75.18
74613;BME280;63119;51.788;8.824;2024-03-08T05:33:29;100212.34;;;1.96;75.11
74613;BME280;63119;51.788;8.824;2024-03-08T05:35:54;100217.75;;;1.90;75.18
74613;BME280;63119;51.788;8.824;2024-03-08T05:38:20;100212.78;;;1.81;75.70
74613;BME280;63119;51.788;8.824;2024-03-08T05:40:46;100216.72;;;1.96;75.82
74613;BME280;63119;51.788;8.824;2024-03-08T05:43:11;100212.72;;;1.84;75.80
74613;BME280;63119;51.788;8.824;2024-03-08T05:45:37;100213.59;;;1.83;76.09
74613;BME280;63119;51.788;8.824;2024-03-08T05:48:02;100207.22;;;1.93;76.06
74613;BME280;63119;51.788;8.824;2024-03-08T05:50:27;100216.38;;;1.77;75.98
74613;BME280;63119;51.788;8.824;2024-03-08T05:52:53;100204.63;;;1.93;75.03
74613;BME280;63119;51.788;8.824;2024-03-08T05:55:18;100208.06;;;1.94;75.63
74613;BME280;63119;51.788;8.824;2024-03-08T05:57:43;100205.41;;;1.95;75.63
74613;BME280;63119;51.788;8.824;2024-03-08T06:00:09;100202.34;;;1.81;76.08
74613;BME280;63119;51.788;8.824;2024-03-08T06:02:40;100198.03;;;1.80;76.11
74613;BME280;63119;51.788;8.824;2024-03-08T06:05:10;100205.31;;;1.98;75.95
74613;BME280;63119;51.788;8.824;2024-03-08T06:07:36;100202.28;;;1.84;76.18
74613;BME280;63119;51.788;8.824;2024-03-08T06:10:06;100203.03;;;1.88;76.13
74613;BME280;63119;51.788;8.824;2024-03-08T06:12:31;100203.72;;;1.94;75.61
74613;BME280;63119;51.788;8.824;2024-03-08T06:14:58;100204.78;;;1.87;76.21
74613;BME280;63119;51.788;8.824;2024-03-08T06:17:23;100205.03;;;2.07;75.21
74613;BME280;63119;51.788;8.824;2024-03-08T06:19:50;100201.63;;;2.05;75.21
74613;BME280;63119;51.788;8.824;2024-03-08T06:22:16;100209.22;;;2.13;75.43
74613;BME280;63119;51.788;8.824;2024-03-08T06:24:41;100206.59;;;2.14;75.44
74613;BME280;63119;51.788;8.824;2024-03-08T06:27:07;100211.34;;;2.30;74.57
74613;BME280;63119;51.788;8.824;2024-03-08T06:29:34;100200.19;;;3.77;69.79
74613;BME280;63119;51.788;8.824;2024-03-08T06:32:00;100204.41;;;4.26;66.71
74613;BME280;63119;51.788;8.824;2024-03-08T06:34:25;100207.66;;;4.33;65.50
74613;BME280;63119;51.788;8.824;2024-03-08T06:36:50;100198.47;;;5.28;62.84
74613;BME280;63119;51.788;8.824;2024-03-08T06:39:17;100198.47;;;5.87;60.33
74613;BME280;63119;51.788;8.824;2024-03-08T06:41:42;100203.44;;;6.85;57.78
74613;BME280;63119;51.788;8.824;2024-03-08T06:44:09;100198.94;;;5.77;59.34
74613;BME280;63119;51.788;8.824;2024-03-08T06:46:35;100196.47;;;5.74;58.96
74613;BME280;63119;51.788;8.824;2024-03-08T06:49:00;100200.56;;;5.99;58.54
74613;BME280;63119;51.788;8.824;2024-03-08T06:51:26;100197.41;;;5.12;61.63
74613;BME280;63119;51.788;8.824;2024-03-08T06:53:51;100200.81;;;4.94;62.69
74613;BME280;63119;51.788;8.824;2024-03-08T06:56:18;100203.91;;;5.04;61.97
74613;BME280;63119;51.788;8.824;2024-03-08T06:58:44;100202.97;;;5.84;59.65
74613;BME280;63119;51.788;8.824;2024-03-08T07:01:10;100202.47;;;6.33;57.92
74613;BME280;63119;51.788;8.824;2024-03-08T07:03:40;100199.50;;;6.77;55.66
74613;BME280;63119;51.788;8.824;2024-03-08T07:06:09;100195.47;;;8.37;52.97
74613;BME280;63119;51.788;8.824;2024-03-08T07:08:34;100195.59;;;8.81;50.66
74613;BME280;63119;51.788;8.824;2024-03-08T07:10:59;100196.09;;;9.89;49.19
74613;BME280;63119;51.788;8.824;2024-03-08T07:13:25;100191.94;;;10.27;47.52
74613;BME280;63119;51.788;8.824;2024-03-08T07:15:50;100191.13;;;10.27;46.01
74613;BME280;63119;51.788;8.824;2024-03-08T07:18:17;100193.06;;;9.67;47.86
74613;BME280;63119;51.788;8.824;2024-03-08T07:20:42;100186.84;;;9.10;49.17
74613;BME280;63119;51.788;8.824;2024-03-08T07:23:08;100197.16;;;9.86;47.72
74613;BME280;63119;51.788;8.824;2024-03-08T07:25:34;100193.56;;;9.59;47.50
74613;BME280;63119;51.788;8.824;2024-03-08T07:28:00;100202.13;;;8.89;48.82
74613;BME280;63119;51.788;8.824;2024-03-08T07:30:26;100197.97;;;9.45;48.16
74613;BME280;63119;51.788;8.824;2024-03-08T07:33:11;100198.63;;;10.47;45.69
74613;BME280;63119;51.788;8.824;2024-03-08T07:35:39;100194.34;;;9.31;47.75
74613;BME280;63119;51.788;8.824;2024-03-08T07:38:08;100187.34;;;9.74;47.65
74613;BME280;63119;51.788;8.824;2024-03-08T07:40:39;100183.00;;;10.02;47.29
74613;BME280;63119;51.788;8.824;2024-03-08T07:43:09;100174.56;;;11.04;45.31
74613;BME280;63119;51.788;8.824;2024-03-08T07:45:35;100179.63;;;11.46;44.83
74613;BME280;63119;51.788;8.824;2024-03-08T07:48:00;100174.69;;;10.63;44.48
74613;BME280;63119;51.788;8.824;2024-03-08T07:50:27;100161.66;;;10.99;45.33
74613;BME280;63119;51.788;8.824;2024-03-08T07:52:52;100179.81;;;10.78;45.85
74613;BME280;63119;51.788;8.824;2024-03-08T07:55:17;100167.66;;;10.88;46.75
74613;BME280;63119;51.788;8.824;2024-03-08T07:57:42;100171.19;;;10.62;46.21
74613;BME280;63119;51.788;8.824;2024-03-08T08:00:09;100166.81;;;10.61;46.14
74613;BME280;63119;51.788;8.824;2024-03-08T08:02:35;100180.91;;;9.93;47.83
74613;BME280;63119;51.788;8.824;2024-03-08T08:05:01;100169.78;;;9.59;47.94
74613;BME280;63119;51.788;8.824;2024-03-08T08:07:27;100169.19;;;8.35;52.36
74613;BME280;63119;51.788;8.824;2024-03-08T08:09:52;100171.84;;;7.87;53.17
74613;BME280;63119;51.788;8.824;2024-03-08T08:12:18;100162.75;;;7.44;55.10
74613;BME280;63119;51.788;8.824;2024-03-08T08:14:43;100166.63;;;6.68;56.25
74613;BME280;63119;51.788;8.824;2024-03-08T08:17:08;100168.16;;;7.41;54.83
74613;BME280;63119;51.788;8.824;2024-03-08T08:19:34;100162.97;;;7.72;55.28
74613;BME280;63119;51.788;8.824;2024-03-08T08:22:01;100158.81;;;7.01;56.24
74613;BME280;63119;51.788;8.824;2024-03-08T08:24:27;100161.88;;;6.57;56.64
74613;BME280;63119;51.788;8.824;2024-03-08T08:26:53;100168.41;;;6.68;56.95
74613;BME280;63119;51.788;8.824;2024-03-08T08:29:18;100164.25;;;6.98;57.51
74613;BME280;63119;51.788;8.824;2024-03-08T08:31:43;100157.66;;;6.18;58.55
74613;BME280;63119;51.788;8.824;2024-03-08T08:34:09;100149.31;;;6.45;59.63
74613;BME280;63119;51.788;8.824;2024-03-08T08:36:36;100153.16;;;6.38;59.20
74613;BME280;63119;51.788;8.824;2024-03-08T08:39:02;100151.19;;;6.60;58.53
74613;BME280;63119;51.788;8.824;2024-03-08T08:41:28;100152.09;;;7.12;58.53
74613;BME280;63119;51.788;8.824;2024-03-08T08:43:54;100145.81;;;6.98;57.53
74613;BME280;63119;51.788;8.824;2024-03-08T08:46:20;100140.69;;;7.62;56.35
74613;BME280;63119;51.788;8.824;2024-03-08T08:48:46;100141.34;;;7.50;55.44
74613;BME280;63119;51.788;8.824;2024-03-08T08:51:12;100146.06;;;7.10;57.60
74613;BME280;63119;51.788;8.824;2024-03-08T08:53:41;100146.28;;;6.72;58.31
74613;BME280;63119;51.788;8.824;2024-03-08T08:56:11;100147.13;;;6.72;58.94
74613;BME280;63119;51.788;8.824;2024-03-08T08:58:41;100143.06;;;6.84;58.25
74613;BME280;63119;51.788;8.824;2024-03-08T09:01:07;100137.44;;;7.24;57.52
74613;BME280;63119;51.788;8.824;2024-03-08T09:03:33;100143.50;;;6.92;58.22
74613;BME280;63119;51.788;8.824;2024-03-08T09:06:00;100149.22;;;6.66;57.87
74613;BME280;63119;51.788;8.824;2024-03-08T09:08:25;100141.50;;;6.80;58.13
74613;BME280;63119;51.788;8.824;2024-03-08T09:10:51;100133.19;;;6.70;58.86
74613;BME280;63119;51.788;8.824;2024-03-08T09:13:16;100125.53;;;7.17;57.68
74613;BME280;63119;51.788;8.824;2024-03-08T09:15:42;100121.75;;;7.55;56.91
74613;BME280;63119;51.788;8.824;2024-03-08T09:18:07;100131.06;;;7.78;56.32
74613;BME280;63119;51.788;8.824;2024-03-08T09:20:34;100123.44;;;7.56;56.92
74613;BME280;63119;51.788;8.824;2024-03-08T09:22:59;100113.81;;;7.40;56.78
74613;BME280;63119;51.788;8.824;2024-03-08T09:25:25;100117.06;;;7.60;57.16
74613;BME280;63119;51.788;8.824;2024-03-08T09:27:51;100102.69;;;7.99;56.60
74613;BME280;63119;51.788;8.824;2024-03-08T09:30:16;100106.66;;;7.26;57.04
74613;BME280;63119;51.788;8.824;2024-03-08T09:32:42;100107.84;;;7.36;57.28
74613;BME280;63119;51.788;8.824;2024-03-08T09:35:08;100091.28;;;7.83;56.18
74613;BME280;63119;51.788;8.824;2024-03-08T09:37:34;100095.69;;;7.98;55.24
74613;BME280;63119;51.788;8.824;2024-03-08T09:39:59;100092.19;;;7.82;55.95
74613;BME280;63119;51.788;8.824;2024-03-08T09:42:25;100077.88;;;7.87;56.87
74613;BME280;63119;51.788;8.824;2024-03-08T09:44:51;100076.13;;;7.55;57.05
74613;BME280;63119;51.788;8.824;2024-03-08T09:47:17;100078.75;;;7.55;56.48
74613;BME280;63119;51.788;8.824;2024-03-08T09:49:43;100053.66;;;7.81;56.16
74613;BME280;63119;51.788;8.824;2024-03-08T09:52:08;100060.34;;;7.86;55.80
74613;BME280;63119;51.788;8.824;2024-03-08T09:54:35;100061.53;;;7.65;56.41
74613;BME280;63119;51.788;8.824;2024-03-08T09:57:05;100046.69;;;8.25;56.27
74613;BME280;63119;51.788;8.824;2024-03-08T09:59:33;100046.13;;;7.57;56.12
74613;BME280;63119;51.788;8.824;2024-03-08T10:02:01;100040.50;;;8.42;54.76
74613;BME280;63119;51.788;8.824;2024-03-08T10:04:28;100035.84;;;8.15;54.94
74613;BME280;63119;51.788;8.824;2024-03-08T10:06:57;100028.56;;;8.05;55.21
74613;BME280;63119;51.788;8.824;2024-03-08T10:09:24;100033.25;;;8.45;55.45
74613;BME280;63119;51.788;8.824;2024-03-08T10:11:55;100025.28;;;8.31;53.99
74613;BME280;63119;51.788;8.824;2024-03-08T10:14:21;100014.59;;;8.48;54.85
74613;BME280;63119;51.788;8.824;2024-03-08T10:16:46;100013.56;;;8.95;54.43
74613;BME280;63119;51.788;8.824;2024-03-08T10:19:11;100017.66;;;8.56;54.85
74613;BME280;63119;51.788;8.824;2024-03-08T10:21:50;100011.53;;;8.56;54.36
74613;BME280;63119;51.788;8.824;2024-03-08T10:24:18;100012.06;;;8.01;54.42
74613;BME280;63119;51.788;8.824;2024-03-08T10:26:44;100008.63;;;8.31;54.15
74613;BME280;63119;51.788;8.824;2024-03-08T10:29:09;100004.06;;;8.48;55.37
74613;BME280;63119;51.788;8.824;2024-03-08T10:31:34;100009.06;;;8.23;53.82
74613;BME280;63119;51.788;8.824;2024-03-08T10:34:00;100018.28;;;7.85;54.95
74613;BME280;63119;51.788;8.824;2024-03-08T10:36:28;99994.13;;;8.08;55.09
74613;BME280;63119;51.788;8.824;2024-03-08T10:38:53;99990.78;;;8.20;53.60
74613;BME280;63119;51.788;8.824;2024-03-08T10:41:24;99990.66;;;7.92;55.17
74613;BME280;63119;51.788;8.824;2024-03-08T10:44:16;99993.84;;;8.28;53.70
74613;BME280;63119;51.788;8.824;2024-03-08T10:49:26;99976.25;;;9.15;53.01
74613;BME280;63119;51.788;8.824;2024-03-08T10:51:56;99976.69;;;8.65;52.94
74613;BME280;63119;51.788;8.824;2024-03-08T10:54:23;99976.03;;;8.75;53.05
74613;BME280;63119;51.788;8.824;2024-03-08T10:56:50;99977.19;;;9.14;52.34
74613;BME280;63119;51.788;8.824;2024-03-08T10:59:16;99977.66;;;9.20;52.17
74613;BME280;63119;51.788;8.824;2024-03-08T11:01:43;99970.59;;;9.21;52.56
74613;BME280;63119;51.788;8.824;2024-03-08T11:04:09;99986.66;;;9.59;52.68
74613;BME280;63119;51.788;8.824;2024-03-08T11:09:03;99967.75;;;8.82;51.89
74613;BME280;63119;51.788;8.824;2024-03-08T11:11:32;99967.38;;;9.30;51.81
74613;BME280;63119;51.788;8.824;2024-03-08T11:14:00;99961.44;;;9.26;50.94
74613;BME280;63119;51.788;8.824;2024-03-08T11:18:58;99958.94;;;8.39;52.44
74613;BME280;63119;51.788;8.824;2024-03-08T11:21:29;99943.06;;;8.97;52.40
74613;BME280;63119;51.788;8.824;2024-03-08T11:24:00;99940.06;;;9.44;52.03
74613;BME280;63119;51.788;8.824;2024-03-08T11:26:26;99941.63;;;9.19;51.64
74613;BME280;63119;51.788;8.824;2024-03-08T11:28:51;99924.97;;;8.62;51.88
74613;BME280;63119;51.788;8.824;2024-03-08T11:31:22;99927.81;;;9.02;51.86
74613;BME280;63119;51.788;8.824;2024-03-08T11:33:47;99923.63;;;9.53;51.30
74613;BME280;63119;51.788;8.824;2024-03-08T11:36:20;99916.06;;;9.61;51.17
74613;BME280;63119;51.788;8.824;2024-03-08T11:38:48;99910.69;;;9.36;50.75
74613;BME280;63119;51.788;8.824;2024-03-08T11:41:17;99918.34;;;9.53;50.80
74613;BME280;63119;51.788;8.824;2024-03-08T11:43:43;99907.34;;;9.05;51.60
74613;BME280;63119;51.788;8.824;2024-03-08T11:46:09;99909.91;;;9.48;51.56
74613;BME280;63119;51.788;8.824;2024-03-08T11:48:34;99905.53;;;9.73;52.10
74613;BME280;63119;51.788;8.824;2024-03-08T11:51:01;99898.56;;;10.12;50.48
74613;BME280;63119;51.788;8.824;2024-03-08T11:53:26;99894.22;;;9.71;50.05
74613;BME280;63119;51.788;8.824;2024-03-08T11:55:52;99892.78;;;9.80;51.19
74613;BME280;63119;51.788;8.824;2024-03-08T11:58:17;99895.25;;;9.56;50.70
74613;BME280;63119;51.788;8.824;2024-03-08T12:00:43;99891.09;;;9.52;50.54
74613;BME280;63119;51.788;8.824;2024-03-08T12:03:11;99889.25;;;9.67;51.09
74613;BME280;63119;51.788;8.824;2024-03-08T12:05:37;99877.34;;;9.20;50.55
74613;BME280;63119;51.788;8.824;2024-03-08T12:08:03;99874.97;;;9.30;51.05
74613;BME280;63119;51.788;8.824;2024-03-08T12:10:30;99863.25;;;9.34;52.04
74613;BME280;63119;51.788;8.824;2024-03-08T12:12:57;99857.13;;;9.60;51.07
74613;BME280;63119;51.788;8.824;2024-03-08T12:15:25;99850.44;;;9.28;51.04
74613;BME280;63119;51.788;8.824;2024-03-08T12:17:52;99867.78;;;9.32;50.57
74613;BME280;63119;51.788;8.824;2024-03-08T12:20:25;99855.09;;;9.51;50.59
74613;BME280;63119;51.788;8.824;2024-03-08T12:22:52;99834.00;;;9.37;50.69
74613;BME280;63119;51.788;8.824;2024-03-08T12:25:18;99845.91;;;9.57;51.23
74613;BME280;63119;51.788;8.824;2024-03-08T12:27:45;99841.16;;;9.62;51.80
74613;BME280;63119;51.788;8.824;2024-03-08T12:32:50;99835.59;;;9.79;50.58
74613;BME280;63119;51.788;8.824;2024-03-08T12:35:18;99841.31;;;9.85;50.24
74613;BME280;63119;51.788;8.824;2024-03-08T12:37:43;99820.91;;;9.75;50.50
74613;BME280;63119;51.788;8.824;2024-03-08T12:40:09;99822.94;;;9.97;49.56
74613;BME280;63119;51.788;8.824;2024-03-08T12:42:35;99808.81;;;9.58;50.23
74613;BME280;63119;51.788;8.824;2024-03-08T12:45:00;99809.16;;;9.66;50.93
74613;BME280;63119;51.788;8.824;2024-03-08T12:47:26;99807.66;;;9.62;51.07
74613;BME280;63119;51.788;8.824;2024-03-08T12:49:53;99802.72;;;9.83;51.14
74613;BME280;63119;51.788;8.824;2024-03-08T12:52:19;99791.00;;;9.74;50.84
74613;BME280;63119;51.788;8.824;2024-03-08T12:54:44;99794.03;;;9.68;50.87
74613;BME280;63119;51.788;8.824;2024-03-08T12:57:09;99788.44;;;9.60;50.76
74613;BME280;63119;51.788;8.824;2024-03-08T12:59:35;99782.09;;;9.88;50.94
74613;BME280;63119;51.788;8.824;2024-03-08T13:02:00;99777.56;;;9.77;51.52
74613;BME280;63119;51.788;8.824;2024-03-08T13:04:25;99758.44;;;9.99;51.52
74613;BME280;63119;51.788;8.824;2024-03-08T13:06:50;99765.66;;;10.22;51.30